This is the latest recevied weather packets stored in our database for station/object PY2KO-3. If no packets are shown the sender has not sent any weather packets the latest 10 day(s).
| Time | Temp. | Humidity | Pressure | Rain* | Wind** | Luminosity | Snow |
|---|---|---|---|---|---|---|---|
| 1777574051 | 22.22° C | 76% | 1018.6 hPa | - | - | - | - |
| 1777573151 | 21.67° C | 77% | 1018.8 hPa | - | - | - | - |
| 1777572255 | 22.78° C | 75% | 1018.2 hPa | - | - | - | - |
| 1777571360 | 22.78° C | 75% | 1018.2 hPa | - | - | - | - |
| 1777570460 | 22.78° C | 74% | 1017.9 hPa | - | - | - | - |
| 1777569552 | 23.89° C | 70% | 1017.7 hPa | - | - | - | - |
| 1777568651 | 23.89° C | 69% | 1017.6 hPa | - | - | - | - |
| 1777567757 | 24.44° C | 68% | 1017.5 hPa | - | - | - | - |
| 1777566851 | 23.89° C | 68% | 1017.7 hPa | - | - | - | - |
| 1777565951 | 24.44° C | 69% | 1017.6 hPa | - | - | - | - |
| 1777565056 | 26.67° C | 65% | 1016.9 hPa | - | - | - | - |
| 1777564157 | 27.22° C | 57% | 1016.8 hPa | - | - | - | - |
| 1777563363 | 28.33° C | 54% | 1016.6 hPa | - | - | - | - |
| 1777562358 | 26.67° C | 56% | 1017.4 hPa | - | - | - | - |
| 1777558764 | 25° C | 61% | 1019 hPa | - | - | - | - |
| 1777556065 | 24.44° C | 64% | 1019.4 hPa | - | - | - | - |
| 1777555176 | 25.56° C | 61% | 1019.6 hPa | - | - | - | - |
| 1777553478 | 23.89° C | 67% | 1019.9 hPa | - | - | - | - |
| 1777552454 | 23.89° C | 66% | 1019.8 hPa | - | - | - | - |
| 1777551553 | 23.89° C | 68% | 1019.8 hPa | - | - | - | - |
| 1777550656 | 23.89° C | 68% | 1019.8 hPa | - | - | - | - |
| 1777549754 | 21.67° C | 76% | 1020.3 hPa | - | - | - | - |
| 1777549014 | 22.22° C | 72% | 1019.8 hPa | - | - | - | - |
| 1777547962 | 20.56° C | 80% | 1020.1 hPa | - | - | - | - |
| 1777547054 | 20° C | 82% | 1020.4 hPa | - | - | - | - |
* Rain since midnight (hover to see other rain measurements)
** Current wind speed in m/s (hover to see current wind gust speed)